FNGI

Ngjiva Pereira Airport

Ngiva, Angola
METAR FNGI 171100Z 25004KT 9999 FEW016 34/10 Q1016
Observed Flight Rules
Dec-17 @ 11:00 UTC (2 hours ago) Visual Flight Rules
Wind Visibility Clouds
250° at 4 knots 10,000+ meters
  • Few at 1,600' AGL
Temperatures Readings
Current 34°C / 93°F
Dewpoint 10°C / 50°F
Humidity 23%
Altimeter 30" Hg
Pressure 1016 hPa
Elevation 1087
METAR FNGI 171100Z 25004KT 9999 FEW016 34/10 Q1016
Observed Flight Rules
Dec-17 @ 11:00 UTC
(2 hours ago)
VFR
Wind Visibility
250° at 4 knots 10,000+ meters
Clouds
  • Few at 1,600' AGL
Temperature Dewpoint
34°C / 93°F 10°C / 50°F
Humidity Altimeter Pressure
23% 30" Hg 1016 hPa